createdAt,value
2022-10-12T00:01:50.488Z,101176.69
2022-10-12T00:06:51.986Z,101174.16
2022-10-12T00:11:53.342Z,101173.44
2022-10-12T00:16:54.691Z,101175.28
2022-10-12T00:21:56.035Z,101186.16
2022-10-12T00:26:57.437Z,101177.69
2022-10-12T00:31:58.886Z,101176.28
2022-10-12T00:37:00.291Z,101181.78
2022-10-12T00:42:01.677Z,101178.00
2022-10-12T00:47:14.455Z,101173.22
2022-10-12T00:52:19.959Z,101168.00
2022-10-12T00:57:22.713Z,101162.91
2022-10-12T01:02:27.757Z,101167.44
2022-10-12T01:07:29.147Z,101167.66
2022-10-12T01:12:31.571Z,101173.50
2022-10-12T01:17:43.460Z,101169.66
2022-10-12T01:23:04.441Z,101164.03
2022-10-12T01:28:19.996Z,101169.41
2022-10-12T01:33:31.918Z,101164.75
2022-10-12T01:38:41.591Z,101167.44
2022-10-12T01:43:44.607Z,101173.63
2022-10-12T01:48:49.037Z,101165.84
2022-10-12T01:54:08.208Z,101166.81
2022-10-12T01:59:29.775Z,101157.53
2022-10-12T02:04:39.742Z,101157.13
2022-10-12T02:09:41.374Z,101145.00
2022-10-12T02:14:47.271Z,101143.41
2022-10-12T02:19:58.071Z,101144.28
2022-10-12T02:25:01.503Z,101140.19
2022-10-12T02:30:03.508Z,101138.94
2022-10-12T02:35:10.120Z,101133.44
2022-10-12T02:40:34.904Z,101127.38
2022-10-12T02:45:38.379Z,101121.16
2022-10-12T02:50:40.169Z,101119.03
2022-10-12T02:56:10.948Z,101125.94
2022-10-12T03:01:14.178Z,101121.56
2022-10-12T03:06:15.734Z,101122.69
2022-10-12T03:11:17.087Z,101119.16
2022-10-12T03:16:18.503Z,101122.25
2022-10-12T03:21:19.925Z,101123.50
2022-10-12T03:26:21.290Z,101122.97
2022-10-12T03:31:22.680Z,101117.91
2022-10-12T03:36:24.049Z,101112.94
2022-10-12T03:41:25.480Z,101126.03
2022-10-12T03:46:26.877Z,101109.28
2022-10-12T03:51:28.283Z,101120.69
2022-10-12T03:56:29.630Z,101117.88
2022-10-12T04:01:31.081Z,101117.00
2022-10-12T04:06:32.545Z,101125.59
2022-10-12T04:11:33.941Z,101126.97
2022-10-12T04:16:35.290Z,101133.31
2022-10-12T04:21:36.643Z,101129.78
2022-10-12T04:26:38.046Z,101116.66
2022-10-12T04:31:40.326Z,101124.81
2022-10-12T04:36:41.752Z,101121.44
2022-10-12T04:41:43.143Z,101118.91
2022-10-12T04:46:44.643Z,101131.75
2022-10-12T04:51:46.006Z,101128.06
2022-10-12T04:56:48.326Z,101133.00
2022-10-12T05:01:50.288Z,101130.88
2022-10-12T05:06:51.727Z,101131.19
2022-10-12T05:11:53.118Z,101132.16
2022-10-12T05:16:54.772Z,101135.72
2022-10-12T05:21:56.223Z,101135.28
2022-10-12T05:26:57.727Z,101134.56
2022-10-12T05:31:59.145Z,101135.53
2022-10-12T05:37:01.212Z,101132.31
2022-10-12T05:42:03.816Z,101130.06
2022-10-12T05:47:05.206Z,101129.53
2022-10-12T05:52:06.695Z,101126.59
2022-10-12T05:57:08.093Z,101127.69
2022-10-12T06:02:18.460Z,101126.09
2022-10-12T06:07:19.901Z,101132.31
2022-10-12T06:12:21.282Z,101128.66
2022-10-12T06:17:22.788Z,101127.41
2022-10-12T06:22:24.156Z,101125.28
2022-10-12T06:27:25.561Z,101130.09
2022-10-12T06:32:26.939Z,101128.13
2022-10-12T06:37:49.016Z,101134.59
2022-10-12T06:42:54.864Z,101132.94
2022-10-12T06:47:59.030Z,101127.47
2022-10-12T06:53:00.400Z,101130.59
2022-10-12T06:58:01.745Z,101131.16
2022-10-12T07:03:03.758Z,101128.34
2022-10-12T07:08:05.217Z,101133.00
2022-10-12T07:13:06.590Z,101131.16
2022-10-12T07:18:07.940Z,101131.88
2022-10-12T07:23:09.382Z,101130.47
2022-10-12T07:28:10.829Z,101131.75
2022-10-12T07:33:12.575Z,101138.28
2022-10-12T07:38:14.002Z,101131.34
2022-10-12T07:43:16.618Z,101135.09
2022-10-12T07:48:20.038Z,101133.84
2022-10-12T07:53:21.899Z,101139.56
2022-10-12T07:58:23.416Z,101135.91
2022-10-12T08:03:24.912Z,101142.53
2022-10-12T08:08:26.474Z,101143.53
2022-10-12T08:13:28.018Z,101143.25
2022-10-12T08:18:30.679Z,101138.69
2022-10-12T08:23:32.388Z,101140.34
2022-10-12T08:28:34.494Z,101140.00
2022-10-12T08:33:36.028Z,101130.66
2022-10-12T08:38:43.092Z,101122.88
2022-10-12T08:44:06.270Z,101122.25
2022-10-12T08:49:19.638Z,101112.72
2022-10-12T08:54:25.921Z,101118.34
2022-10-12T08:59:29.544Z,101132.03
2022-10-12T09:04:49.196Z,101120.03
2022-10-12T09:10:15.016Z,101121.53
2022-10-12T09:15:22.466Z,101123.88
2022-10-12T09:20:23.776Z,101120.28
2022-10-12T09:25:28.092Z,101120.06
2022-10-12T09:30:30.119Z,101113.91
2022-10-12T09:35:32.786Z,101108.63
2022-10-12T09:40:34.174Z,101110.88
2022-10-12T09:45:36.002Z,101098.47
2022-10-12T09:50:48.047Z,101096.13
2022-10-12T09:55:55.912Z,101100.66
2022-10-12T10:01:21.603Z,101092.72
2022-10-12T10:06:25.122Z,101095.94
2022-10-12T10:11:30.840Z,101097.69
2022-10-12T10:16:32.312Z,101078.53
2022-10-12T10:21:35.809Z,101074.50
2022-10-12T10:26:57.653Z,101072.41
2022-10-12T10:32:16.010Z,101071.47
2022-10-12T10:37:22.947Z,101073.25
2022-10-12T10:42:30.133Z,101077.25
2022-10-12T10:47:32.327Z,101066.72
2022-10-12T10:52:36.899Z,101066.44
2022-10-12T10:57:42.875Z,101056.72
2022-10-12T11:02:59.490Z,101054.59
2022-10-12T11:08:20.673Z,101047.44
2022-10-12T11:13:36.379Z,101041.88
2022-10-12T11:19:18.178Z,101034.78
2022-10-12T11:24:26.617Z,101033.16
2022-10-12T11:29:28.347Z,101026.56
2022-10-12T11:34:46.603Z,101021.53
2022-10-12T11:39:51.828Z,101016.03
2022-10-12T11:44:54.673Z,101006.38
2022-10-12T11:50:00.357Z,101003.59
2022-10-12T11:55:38.966Z,100995.72
2022-10-12T12:00:54.958Z,100993.63
2022-10-12T12:05:56.500Z,100988.25
2022-10-12T12:11:17.838Z,100972.59
2022-10-12T12:16:19.179Z,100975.75
2022-10-12T12:21:20.588Z,100966.53
2022-10-12T12:26:28.228Z,100965.00
2022-10-12T12:31:30.459Z,100952.59
2022-10-12T12:36:34.206Z,100956.63
2022-10-12T12:41:56.483Z,100950.13
2022-10-12T12:47:01.971Z,100950.38
2022-10-12T12:52:13.262Z,100949.34
2022-10-12T12:57:52.932Z,100951.59
2022-10-12T13:03:22.220Z,100949.28
2022-10-12T13:08:35.121Z,100948.19
2022-10-12T13:13:58.339Z,100946.22
2022-10-12T13:19:05.904Z,100935.50
2022-10-12T13:24:19.276Z,100932.41
2022-10-12T13:29:51.944Z,100918.59
2022-10-12T13:34:56.826Z,100916.78
2022-10-12T13:39:58.463Z,100925.88
2022-10-12T13:45:02.008Z,100916.34
2022-10-12T13:50:15.842Z,100917.97
2022-10-12T13:55:17.316Z,100915.00
2022-10-12T14:00:21.508Z,100910.50
2022-10-12T14:05:25.624Z,100895.97
2022-10-12T14:10:32.717Z,100890.59
2022-10-12T14:15:37.010Z,100907.41
2022-10-12T14:20:39.261Z,100909.06
2022-10-12T14:25:55.544Z,100901.75
2022-10-12T14:30:57.166Z,100903.59
2022-10-12T14:36:20.439Z,100887.97
2022-10-12T14:41:37.832Z,100887.19
2022-10-12T14:46:41.948Z,100881.09
2022-10-12T14:51:43.536Z,100868.03
2022-10-12T14:56:45.173Z,100864.47
2022-10-12T15:01:51.236Z,100863.13
2022-10-12T15:06:53.007Z,100860.03
2022-10-12T15:11:54.346Z,100878.91
2022-10-12T15:16:57.804Z,100875.13
2022-10-12T15:21:59.343Z,100883.69
2022-10-12T15:27:00.770Z,100873.53
2022-10-12T15:32:02.156Z,100871.28
2022-10-12T15:37:08.664Z,100864.56
2022-10-12T15:42:12.423Z,100861.31
2022-10-12T15:47:14.150Z,100860.75
2022-10-12T15:52:17.334Z,100856.44
2022-10-12T15:57:18.721Z,100849.88
2022-10-12T16:02:27.462Z,100847.34
2022-10-12T16:07:28.794Z,100845.06
2022-10-12T16:12:30.187Z,100842.84
2022-10-12T16:17:31.609Z,100828.66
2022-10-12T16:22:33.248Z,100834.84
2022-10-12T16:27:35.022Z,100836.28
2022-10-12T16:32:36.650Z,100833.63
2022-10-12T16:37:38.015Z,100840.38
2022-10-12T16:42:39.774Z,100846.50
2022-10-12T16:47:42.708Z,100844.06
2022-10-12T16:52:44.690Z,100850.22
2022-10-12T16:57:47.064Z,100847.34
2022-10-12T17:02:48.545Z,100854.31
2022-10-12T17:07:49.926Z,100846.38
2022-10-12T17:12:51.288Z,100843.88
2022-10-12T17:17:54.004Z,100862.28
2022-10-12T17:22:55.382Z,100862.47
2022-10-12T17:27:56.875Z,100864.34
2022-10-12T17:32:58.227Z,100853.94
2022-10-12T17:37:59.576Z,100854.53
2022-10-12T17:43:00.921Z,100861.19
2022-10-12T17:48:02.448Z,100865.13
2022-10-12T17:53:03.807Z,100864.50
2022-10-12T17:58:05.369Z,100863.41
2022-10-12T18:03:06.809Z,100861.06
2022-10-12T18:08:08.207Z,100852.28
2022-10-12T18:13:09.717Z,100850.56
2022-10-12T18:18:15.151Z,100858.66
2022-10-12T18:23:17.155Z,100851.31
2022-10-12T18:28:18.623Z,100851.66
2022-10-12T18:33:20.096Z,100862.25
2022-10-12T18:38:21.435Z,100852.72
2022-10-12T18:43:22.807Z,100860.56
2022-10-12T18:48:24.303Z,100856.38
2022-10-12T18:53:28.032Z,100851.09
2022-10-12T18:58:29.853Z,100856.34
2022-10-12T19:03:31.229Z,100846.88
2022-10-12T19:08:32.684Z,100852.88
2022-10-12T19:13:37.450Z,100845.72
2022-10-12T19:18:39.943Z,100853.78
2022-10-12T19:23:44.295Z,100846.84
2022-10-12T19:28:48.793Z,100855.00
2022-10-12T19:33:50.532Z,100865.88
2022-10-12T19:38:58.761Z,100863.84
2022-10-12T19:44:01.352Z,100857.03
2022-10-12T19:49:03.157Z,100869.63
2022-10-12T19:54:05.177Z,100865.72
2022-10-12T19:59:07.168Z,100870.97
2022-10-12T20:04:11.868Z,100877.47
2022-10-12T20:09:14.049Z,100878.69
2022-10-12T20:14:15.787Z,100876.00
2022-10-12T20:19:17.417Z,100872.81
2022-10-12T20:24:20.021Z,100876.25
2022-10-12T20:29:21.655Z,100874.47
2022-10-12T20:34:23.334Z,100862.72
2022-10-12T20:39:25.058Z,100876.78
2022-10-12T20:44:26.598Z,100876.66
2022-10-12T20:49:31.066Z,100866.75
2022-10-12T20:54:33.227Z,100863.59
2022-10-12T20:59:36.941Z,100869.34
2022-10-12T21:04:38.632Z,100874.00
2022-10-12T21:09:40.396Z,100882.50
2022-10-12T21:14:41.995Z,100880.75
2022-10-12T21:19:43.479Z,100887.34
2022-10-12T21:24:45.039Z,100863.94
2022-10-12T21:29:46.544Z,100869.19
2022-10-12T21:34:48.388Z,100873.81
2022-10-12T21:39:54.233Z,100867.63
2022-10-12T21:44:56.178Z,100870.03
2022-10-12T21:49:57.672Z,100857.75
2022-10-12T21:54:59.185Z,100858.84
2022-10-12T22:00:00.669Z,100860.53
2022-10-12T22:05:02.224Z,100863.63
2022-10-12T22:10:04.386Z,100855.94
2022-10-12T22:15:08.000Z,100850.88
2022-10-12T22:20:10.098Z,100851.56
2022-10-12T22:25:11.613Z,100841.66
2022-10-12T22:30:13.140Z,100846.25
2022-10-12T22:35:14.847Z,100848.94
2022-10-12T22:40:16.495Z,100860.72
2022-10-12T22:45:17.920Z,100862.56
2022-10-12T22:50:19.783Z,100856.53
2022-10-12T22:55:22.591Z,100862.75
2022-10-12T23:00:24.068Z,100852.34
2022-10-12T23:05:26.100Z,100847.63
2022-10-12T23:10:27.707Z,100853.03
2022-10-12T23:15:29.298Z,100852.00
2022-10-12T23:20:30.853Z,100864.78
2022-10-12T23:25:32.360Z,100868.16
2022-10-12T23:30:34.163Z,100860.41
2022-10-12T23:46:16.209Z,100837.00
2022-10-12T23:56:46.475Z,100830.78
